Time;durP1;ratioP1;P1;durP2;ratioP2;P2;SDS_P1;SDS_P2;PMS_P1;PMS_P2;Temp;Humidity;BMP_temperature;BMP_pressure;BME280_temperature;BME280_humidity;BME280_pressure;Samples;Min_cycle;Max_cycle;Signal;HPM_P1;HPM_P2
2021/12/02 00:02:15;;;;;;;2.53;1.83;;;;;;;6.60;100.00;94658.00;4837644;29;102459;-63
2021/12/02 00:04:45;;;;;;;2.00;1.80;;;;;;;6.52;100.00;94666.44;4853195;29;103738;-63
2021/12/02 00:07:12;;;;;;;1.87;1.77;;;;;;;6.51;100.00;94657.75;4853003;29;105295;-63
2021/12/02 00:09:39;;;;;;;2.17;1.97;;;;;;;6.49;100.00;94651.91;4853212;29;102145;-63
2021/12/02 00:12:07;;;;;;;2.10;1.90;;;;;;;6.49;100.00;94651.91;4853401;29;105188;-63
2021/12/02 00:14:40;;;;;;;2.80;1.90;;;;;;;6.42;100.00;94656.69;4836777;29;104947;-63
2021/12/02 00:17:11;;;;;;;1.73;1.63;;;;;;;6.45;100.00;94660.66;4837742;29;101815;-63
2021/12/02 00:22:28;;;;;;;2.00;1.90;;;;;;;6.41;100.00;94664.88;4856540;29;102177;-64
2021/12/02 00:25:00;;;;;;;2.20;2.00;;;;;;;6.36;100.00;94663.03;4840670;29;105149;-63
2021/12/02 00:27:29;;;;;;;1.80;1.70;;;;;;;6.37;100.00;94658.53;4855777;29;105658;-63
2021/12/02 00:29:58;;;;;;;4.57;1.90;;;;;;;6.32;100.00;94669.13;4856532;29;101960;-63
2021/12/02 00:32:30;;;;;;;1.60;1.50;;;;;;;6.36;100.00;94656.94;4840629;29;104038;-63
2021/12/02 00:35:00;;;;;;;1.57;1.47;;;;;;;6.40;100.00;94663.28;4855792;29;105097;-63
2021/12/02 00:37:28;;;;;;;1.50;1.40;;;;;;;6.51;100.00;94670.16;4856398;29;102104;-63
2021/12/02 00:39:56;;;;;;;1.30;1.20;;;;;;;6.54;100.00;94664.34;4840876;29;103808;-63
2021/12/02 00:42:23;;;;;;;1.10;1.10;;;;;;;6.64;100.00;94664.31;4858752;29;105293;-63
2021/12/02 00:44:51;;;;;;;1.00;0.97;;;;;;;6.70;100.00;94669.31;4840664;29;104855;-63
2021/12/02 00:47:18;;;;;;;1.20;1.20;;;;;;;6.64;100.00;94664.31;4856885;29;102536;-63
2021/12/02 00:49:47;;;;;;;2.50;2.30;;;;;;;6.33;100.00;94668.84;4840467;29;102035;-63
2021/12/02 00:52:16;;;;;;;2.47;2.10;;;;;;;6.29;100.00;94659.09;4840467;29;105082;-63
2021/12/02 00:54:46;;;;;;;2.57;2.10;;;;;;;6.30;100.00;94668.56;4855212;29;105525;-63
2021/12/02 00:57:15;;;;;;;3.20;2.67;;;;;;;6.11;100.00;94670.19;4855970;29;101821;-63
2021/12/02 00:59:42;;;;;;;2.83;2.63;;;;;;;6.01;100.00;94670.19;4840358;29;105124;-63
2021/12/02 01:02:11;;;;;;;3.40;2.93;;;;;;;5.92;100.00;94669.91;4839926;29;105345;-63
2021/12/02 01:04:40;;;;;;;3.03;2.73;;;;;;;5.93;100.00;94668.03;4860573;29;101838;-63
2021/12/02 01:07:07;;;;;;;2.90;2.70;;;;;;;5.88;100.00;94676.75;4855418;29;104392;-63
2021/12/02 01:09:36;;;;;;;2.70;2.50;;;;;;;5.83;100.00;94671.47;4840141;29;101869;-63
2021/12/02 01:12:06;;;;;;;3.67;3.07;;;;;;;5.73;100.00;94673.28;4855649;29;105264;-63
2021/12/02 01:14:33;;;;;;;2.67;2.47;;;;;;;5.67;100.00;94669.84;4839554;29;104100;-63
2021/12/02 01:17:01;;;;;;;3.43;3.13;;;;;;;5.61;100.00;94672.72;4840305;29;102148;-63
2021/12/02 01:19:29;;;;;;;4.63;3.17;;;;;;;5.48;100.00;94671.38;4855631;29;104230;-63
2021/12/02 01:21:57;;;;;;;4.27;3.87;;;;;;;5.39;100.00;94672.13;4839449;29;105422;-63
2021/12/02 01:24:27;;;;;;;3.53;3.33;;;;;;;5.30;100.00;94679.75;4855715;29;101895;-63
2021/12/02 01:26:55;;;;;;;4.23;3.83;;;;;;;5.25;100.00;94681.59;4842666;29;105151;-63
2021/12/02 01:29:26;;;;;;;3.77;3.47;;;;;;;5.15;100.00;94684.19;4839760;29;101956;-63
2021/12/02 01:31:57;;;;;;;4.40;4.00;;;;;;;5.09;100.00;94677.31;4839996;29;105311;-63
2021/12/02 01:34:26;;;;;;;4.13;3.70;;;;;;;4.99;100.00;94678.06;4838183;29;103818;-63
2021/12/02 01:36:54;;;;;;;4.23;3.90;;;;;;;4.94;100.00;94679.88;4839890;29;101880;-63
2021/12/02 01:39:22;;;;;;;4.80;4.40;;;;;;;4.98;100.00;94665.16;4855522;29;104197;-63
2021/12/02 01:41:51;;;;;;;4.93;4.33;;;;;;;4.90;100.00;94666.44;4854657;29;106173;-63
2021/12/02 01:44:20;;;;;;;5.30;4.00;;;;;;;4.91;100.00;94680.41;4839762;29;101816;-63
2021/12/02 01:46:51;;;;;;;4.30;4.00;;;;;;;4.98;100.00;94680.97;4855515;29;105195;-63
2021/12/02 01:49:22;;;;;;;4.53;4.13;;;;;;;4.94;100.00;94678.06;4858034;29;105433;-63
2021/12/02 01:51:51;;;;;;;5.17;4.30;;;;;;;4.88;100.00;94665.09;4855213;29;105903;-63
2021/12/02 01:54:20;;;;;;;4.40;4.00;;;;;;;4.92;100.00;94676.72;4838989;29;105645;-63
2021/12/02 01:56:49;;;;;;;4.00;3.63;;;;;;;4.93;100.00;94675.66;4839481;29;101934;-63
2021/12/02 01:59:18;;;;;;;3.50;3.20;;;;;;;4.95;100.00;94678.81;4855030;29;105579;-63
2021/12/02 02:01:48;;;;;;;3.63;3.27;;;;;;;4.95;100.00;94684.91;4854448;29;106726;-63
2021/12/02 02:04:20;;;;;;;4.47;3.87;;;;;;;4.95;100.00;94684.91;4839484;29;102098;-63
2021/12/02 02:06:54;;;;;;;5.10;3.60;;;;;;;4.98;100.00;94679.13;4839444;29;104959;-63
2021/12/02 02:09:22;;;;;;;3.40;3.10;;;;;;;4.95;100.00;94682.25;4838715;29;105220;-63
2021/12/02 02:11:49;;;;;;;3.87;3.57;;;;;;;4.94;100.00;94682.50;4842352;29;101996;-63
2021/12/02 02:14:17;;;;;;;3.60;3.30;;;;;;;4.95;100.00;94681.47;4854582;29;105940;-63
2021/12/02 02:16:44;;;;;;;3.50;3.20;;;;;;;4.95;100.00;94687.53;4854875;29;102010;-63
2021/12/02 02:19:12;;;;;;;3.27;2.93;;;;;;;4.97;100.00;94679.38;4839426;29;105484;-63
2021/12/02 02:21:42;;;;;;;3.43;3.13;;;;;;;4.98;100.00;94676.50;4865572;28;105167;-63
2021/12/02 02:24:13;;;;;;;3.17;2.87;;;;;;;4.94;100.00;94677.25;4855998;29;101907;-63
2021/12/02 02:26:41;;;;;;;3.23;2.93;;;;;;;4.93;100.00;94683.56;4870408;28;105530;-63
2021/12/02 02:29:10;;;;;;;3.60;3.30;;;;;;;4.93;100.00;94683.56;4869899;28;105163;-63
2021/12/02 02:31:39;;;;;;;3.30;3.00;;;;;;;4.93;100.00;94684.38;4859262;29;101851;-63
2021/12/02 02:34:06;;;;;;;3.40;3.10;;;;;;;4.87;100.00;94679.31;4854159;29;105351;-63
2021/12/02 02:36:40;;;;;;;4.80;3.20;;;;;;;4.85;100.00;94691.97;4869946;28;102393;-63
2021/12/02 02:39:09;;;;;;;3.37;3.07;;;;;;;4.85;100.00;94681.44;4854550;29;104797;-63
2021/12/02 02:41:41;;;;;;;3.20;2.87;;;;;;;4.85;100.00;94676.94;4853979;29;105675;-63
2021/12/02 02:44:10;;;;;;;3.37;3.07;;;;;;;4.83;100.00;94671.16;4854680;29;102194;-63
2021/12/02 02:46:40;;;;;;;4.00;3.00;;;;;;;4.81;100.00;94667.97;4854091;29;104925;-63
2021/12/02 02:49:09;;;;;;;3.10;2.83;;;;;;;4.76;100.00;94667.94;4869796;28;105545;-63
2021/12/02 02:51:39;;;;;;;3.60;3.13;;;;;;;4.78;100.00;94668.50;4870223;28;102028;-63
2021/12/02 02:54:10;;;;;;;3.33;3.03;;;;;;;4.81;100.00;94669.81;4857103;29;105711;-63
2021/12/02 02:56:42;;;;;;;3.33;3.03;;;;;;;4.84;100.00;94664.03;4869971;28;101872;-63
2021/12/02 02:59:15;;;;;;;3.47;3.17;;;;;;;4.87;100.00;94672.22;4854418;29;105378;-63
2021/12/02 03:01:50;;;;;;;3.70;3.40;;;;;;;4.90;100.00;94676.16;4853701;29;105743;-63
2021/12/02 03:04:27;;;;;;;4.50;3.50;;;;;;;4.93;100.00;94673.84;4854308;29;102196;-63
2021/12/02 03:06:56;;;;;;;3.70;3.17;;;;;;;4.92;100.00;94677.50;4854299;29;105111;-63
2021/12/02 03:09:45;;;;;;;4.00;2.90;;;;;;;5.01;100.00;94675.97;4853502;29;105196;-63
2021/12/02 03:12:15;;;;;;;2.70;2.50;;;;;;;5.04;100.00;94678.09;4853837;29;101825;-63
2021/12/02 03:14:54;;;;;;;2.17;1.97;;;;;;;5.11;100.00;94675.22;4854079;29;105398;-63
2021/12/02 03:17:20;;;;;;;2.63;1.80;;;;;;;5.25;100.00;94677.09;4856875;29;105207;-63
2021/12/02 03:19:48;;;;;;;1.50;1.40;;;;;;;5.43;100.00;94667.94;4869649;28;105584;-63
2021/12/02 03:22:17;;;;;;;1.17;1.17;;;;;;;5.59;100.00;94659.81;4837763;29;105627;-63
2021/12/02 03:24:46;;;;;;;1.00;1.00;;;;;;;5.77;100.00;94664.59;4853474;29;101903;-63
2021/12/02 03:27:13;;;;;;;1.07;1.07;;;;;;;5.91;100.00;94659.63;4838393;29;103842;-63
2021/12/02 03:29:41;;;;;;;2.00;0.90;;;;;;;5.97;100.00;94659.34;4837812;29;105171;-63
2021/12/02 03:32:09;;;;;;;0.90;0.90;;;;;;;6.09;100.00;94661.72;4838480;29;102284;-63
2021/12/02 03:34:40;;;;;;;0.70;0.70;;;;;;;6.16;100.00;94659.63;4854028;29;105209;-63
2021/12/02 03:37:08;;;;;;;0.60;0.60;;;;;;;6.20;100.00;94655.38;4854619;29;102726;-63
2021/12/02 03:39:35;;;;;;;1.10;1.00;;;;;;;6.12;100.00;94654.06;4856796;29;101983;-63
2021/12/02 03:42:05;;;;;;;0.80;0.80;;;;;;;6.22;100.00;94651.44;4853250;29;105271;-63
2021/12/02 03:44:33;;;;;;;0.60;0.60;;;;;;;6.21;100.00;94660.41;4855368;29;102319;-63
2021/12/02 03:47:01;;;;;;;0.60;0.60;;;;;;;6.18;100.00;94654.88;4838205;29;105213;-63
2021/12/02 03:49:28;;;;;;;0.50;0.50;;;;;;;6.16;100.00;94654.34;4853016;29;106065;-63
2021/12/02 03:51:57;;;;;;;0.70;0.70;;;;;;;6.12;100.00;94655.94;4853355;29;101898;-63
2021/12/02 03:54:24;;;;;;;0.70;0.70;;;;;;;6.06;100.00;94649.06;4837995;29;104843;-63
2021/12/02 03:56:51;;;;;;;0.83;0.70;;;;;;;6.02;100.00;94642.72;4852934;29;105098;-63
2021/12/02 03:59:20;;;;;;;0.70;0.70;;;;;;;6.01;100.00;94646.44;4858193;29;102075;-63
2021/12/02 04:01:48;;;;;;;0.90;0.87;;;;;;;5.91;100.00;94641.94;4844008;29;104921;-63
2021/12/02 04:04:17;;;;;;;1.37;1.20;;;;;;;5.82;100.00;94637.44;4839882;29;101870;-63
2021/12/02 04:06:43;;;;;;;1.67;1.10;;;;;;;5.79;100.00;94641.38;4856964;29;105235;-63
2021/12/02 04:09:14;;;;;;;1.50;1.40;;;;;;;5.66;100.00;94635.81;4840354;29;103994;-63
2021/12/02 04:11:45;;;;;;;1.90;1.80;;;;;;;5.54;100.00;94649.25;4841221;29;101889;-63
2021/12/02 04:14:17;;;;;;;2.20;2.10;;;;;;;5.46;100.00;94648.97;4856842;29;105265;-63
2021/12/02 04:16:53;;;;;;;3.17;2.87;;;;;;;5.35;100.00;94660.56;4840358;29;105586;-63
2021/12/02 04:19:21;;;;;;;3.23;3.03;;;;;;;5.32;100.00;94653.94;4856693;29;101850;-63
2021/12/02 04:21:49;;;;;;;3.20;2.90;;;;;;;5.19;100.00;94651.78;4856393;29;103734;-63
2021/12/02 04:24:16;;;;;;;3.77;3.47;;;;;;;5.15;100.00;94657.84;4843442;29;105486;-63
2021/12/02 04:26:43;;;;;;;4.37;3.37;;;;;;;5.17;100.00;94668.91;4857885;29;102265;-63
2021/12/02 04:29:11;;;;;;;3.20;3.00;;;;;;;5.16;100.00;94657.59;4857372;29;102806;-63
2021/12/02 04:31:38;;;;;;;3.60;3.30;;;;;;;5.12;100.00;94656.53;4840879;29;101956;-63
2021/12/02 04:34:06;;;;;;;4.13;3.77;;;;;;;5.08;100.00;94654.66;4857949;29;103002;-63
2021/12/02 04:36:33;;;;;;;4.07;3.67;;;;;;;5.11;100.00;94660.22;4839999;29;105365;-63
2021/12/02 04:39:00;;;;;;;4.93;3.93;;;;;;;5.12;100.00;94666.28;4857865;29;102104;-63
2021/12/02 04:41:28;;;;;;;4.30;3.90;;;;;;;5.11;100.00;94649.66;4857818;29;102487;-63
2021/12/02 04:43:55;;;;;;;4.30;3.77;;;;;;;5.13;100.00;94659.97;4860437;29;102673;-63
2021/12/02 04:46:22;;;;;;;5.17;4.67;;;;;;;5.13;100.00;94665.22;4857519;29;102379;-63
2021/12/02 04:48:49;;;;;;;3.90;3.60;;;;;;;5.06;100.00;94662.00;4855752;29;103697;-63
2021/12/02 04:51:17;;;;;;;6.33;4.10;;;;;;;4.98;100.00;94654.63;4840526;29;102042;-63
2021/12/02 04:53:44;;;;;;;5.17;4.53;;;;;;;4.92;100.00;94655.66;4840271;29;103678;-63
2021/12/02 04:56:11;;;;;;;6.67;4.80;;;;;;;4.98;100.00;94665.16;4839422;29;105545;-63
2021/12/02 04:58:39;;;;;;;5.67;4.87;;;;;;;4.97;100.00;94663.56;4840688;29;101749;-63
2021/12/02 05:01:07;;;;;;;4.83;4.40;;;;;;;4.98;100.00;94670.44;4840563;29;104496;-63
2021/12/02 05:03:35;;;;;;;4.37;3.97;;;;;;;4.90;100.00;94673.53;4839907;29;105513;-63
2021/12/02 05:06:02;;;;;;;4.80;4.23;;;;;;;4.91;100.00;94680.41;4843282;29;101971;-63
2021/12/02 05:08:32;;;;;;;5.20;4.60;;;;;;;4.94;100.00;94677.25;4839390;29;105498;-63
2021/12/02 05:10:59;;;;;;;4.77;4.37;;;;;;;4.94;100.00;94675.41;4856053;29;102047;-63
2021/12/02 05:13:26;;;;;;;4.87;4.17;;;;;;;4.94;100.00;94674.63;4857386;29;102579;-63
2021/12/02 05:15:54;;;;;;;4.53;4.13;;;;;;;4.95;100.00;94682.25;4839493;29;105705;-63
2021/12/02 05:18:21;;;;;;;5.00;4.30;;;;;;;4.99;100.00;94690.44;4855905;29;101885;-63
2021/12/02 05:20:49;;;;;;;5.60;4.70;;;;;;;4.90;100.00;94690.13;4855278;29;104865;-63
2021/12/02 05:23:16;;;;;;;4.60;3.80;;;;;;;4.84;100.00;94695.63;4855235;29;105720;-63
2021/12/02 05:25:46;;;;;;;4.43;4.00;;;;;;;4.83;100.00;94697.47;4840034;29;101972;-63
2021/12/02 05:28:15;;;;;;;4.90;4.40;;;;;;;4.94;100.00;94703.59;4858481;29;105692;-63
2021/12/02 05:30:42;;;;;;;4.40;4.00;;;;;;;4.93;100.00;94702.00;4840092;29;101964;-63
2021/12/02 05:33:09;;;;;;;4.43;4.03;;;;;;;4.99;100.00;94701.78;4839927;29;104796;-63
2021/12/02 05:35:36;;;;;;;4.63;4.10;;;;;;;5.01;100.00;94704.13;4839285;29;104932;-63
2021/12/02 05:38:03;;;;;;;5.17;4.40;;;;;;;4.95;100.00;94703.34;4856897;29;102094;-63
2021/12/02 05:40:30;;;;;;;4.70;4.30;;;;;;;4.89;100.00;94706.19;4855702;29;104920;-63
2021/12/02 05:42:59;;;;;;;3.93;3.53;;;;;;;4.99;100.00;94706.25;4838979;29;105256;-63
2021/12/02 05:45:26;;;;;;;3.83;3.43;;;;;;;5.01;100.00;94707.56;4855532;29;101890;-63
2021/12/02 05:47:53;;;;;;;3.40;3.10;;;;;;;5.01;100.00;94697.03;4839601;29;104910;-63
2021/12/02 05:50:21;;;;;;;2.60;2.40;;;;;;;4.99;100.00;94704.41;4842414;29;105435;-63
2021/12/02 05:52:48;;;;;;;3.37;2.10;;;;;;;4.94;100.00;94701.75;4855449;29;105191;-63
2021/12/02 05:55:16;;;;;;;2.10;2.00;;;;;;;5.05;100.00;94708.66;4839239;29;104749;-63
2021/12/02 05:57:42;;;;;;;1.40;1.30;;;;;;;5.06;100.00;94709.44;4856329;29;101987;-63
2021/12/02 06:00:12;;;;;;;1.20;1.10;;;;;;;5.01;100.00;94707.56;4839721;29;105232;-63
2021/12/02 06:02:43;;;;;;;3.77;2.97;;;;;;;4.87;100.00;94708.28;4856405;29;102387;-63
2021/12/02 06:05:16;;;;;;;2.67;2.47;;;;;;;4.84;100.00;94706.16;4839308;29;101963;-63
2021/12/02 06:07:44;;;;;;;5.20;4.47;;;;;;;4.80;100.00;94711.16;4839486;29;105388;-63
2021/12/02 06:10:11;;;;;;;5.23;3.67;;;;;;;4.79;100.00;94708.75;4856654;28;105824;-63
2021/12/02 06:12:44;;;;;;;6.70;3.93;;;;;;;4.87;100.00;94701.19;4868753;28;101820;-64
2021/12/02 06:15:13;;;;;;;3.03;2.10;;;;;;;4.85;100.00;94702.50;4856267;29;102866;-62
2021/12/02 06:17:42;;;;;;;1.37;1.27;;;;;;;4.92;100.00;94703.06;4857920;28;101949;-62
2021/12/02 06:20:11;;;;;;;4.00;2.83;;;;;;;4.86;100.00;94693.56;4857400;28;105572;-63
2021/12/02 06:22:38;;;;;;;16.60;11.00;;;;;;;4.80;100.00;94697.22;4847900;29;103862;-62
2021/12/02 06:27:59;;;;;;;2.43;1.90;;;;;;;4.79;100.00;94708.75;4856892;28;105823;-62
2021/12/02 06:30:33;;;;;;;3.73;2.90;;;;;;;4.92;100.00;94714.38;4873755;28;103175;-62
2021/12/02 06:33:01;;;;;;;6.73;5.20;;;;;;;4.91;100.00;94712.00;4846853;28;102051;-62
2021/12/02 06:35:28;;;;;;;2.80;1.60;;;;;;;4.97;100.00;94721.53;4860183;28;104073;-62
2021/12/02 06:37:56;;;;;;;1.50;1.40;;;;;;;4.97;100.00;94717.03;4857522;28;102091;-62
2021/12/02 06:40:25;;;;;;;1.33;1.13;;;;;;;4.94;100.00;94728.09;4874916;28;102608;-62
2021/12/02 06:42:53;;;;;;;1.20;1.10;;;;;;;4.96;100.00;94725.22;4848946;28;105461;-62
2021/12/02 06:45:20;;;;;;;1.67;1.50;;;;;;;4.97;100.00;94726.78;4856526;28;101984;-62
2021/12/02 06:47:51;;;;;;;1.40;1.30;;;;;;;4.97;100.00;94730.19;4857909;28;105357;-62
2021/12/02 06:50:20;;;;;;;1.93;1.50;;;;;;;4.97;100.00;94735.47;4843147;29;105595;-62
2021/12/02 06:52:49;;;;;;;1.33;1.23;;;;;;;5.05;100.00;94739.47;4848105;28;101940;-62
2021/12/02 06:55:22;;;;;;;1.83;1.60;;;;;;;5.16;100.00;94736.63;4860636;28;104863;-62
2021/12/02 06:57:50;;;;;;;1.27;1.13;;;;;;;5.26;100.00;94736.69;4848592;29;103273;-62
2021/12/02 07:00:19;;;;;;;1.13;1.00;;;;;;;5.28;100.00;94729.28;4839018;29;105576;-62
2021/12/02 07:02:52;;;;;;;1.50;1.40;;;;;;;5.30;100.00;94737.72;4845327;28;105477;-62
2021/12/02 07:05:20;;;;;;;2.37;1.20;;;;;;;5.30;100.00;94736.94;4872298;28;102426;-62
2021/12/02 07:07:47;;;;;;;1.90;1.30;;;;;;;5.30;100.00;94734.31;4856006;28;104637;-62
2021/12/02 07:10:20;;;;;;;1.30;0.80;;;;;;;5.33;100.00;94741.69;4869644;28;105152;-63
2021/12/02 07:12:50;;;;;;;1.50;1.40;;;;;;;5.33;100.00;94742.50;4844218;29;103149;-63
2021/12/02 07:15:19;;;;;;;2.50;1.60;;;;;;;5.34;100.00;94744.06;4838851;29;105168;-63
2021/12/02 07:17:48;;;;;;;1.47;1.37;;;;;;;5.36;100.00;94741.19;4856585;29;105720;-63
2021/12/02 07:20:18;;;;;;;1.13;1.03;;;;;;;5.38;100.00;94739.06;4845410;28;105199;-62
2021/12/02 07:22:47;;;;;;;2.07;1.33;;;;;;;5.41;100.00;94735.94;4854505;28;104046;-63
2021/12/02 07:28:37;;;;;;;1.63;1.33;;;;;;;5.43;100.00;94733.81;4841703;29;105244;-63
2021/12/02 07:34:34;;;;;;;2.57;1.00;;;;;;;5.43;100.00;94739.91;4851341;28;103322;-63
2021/12/02 07:37:02;;;;;;;1.10;0.90;;;;;;;5.48;100.00;94744.41;4856467;28;104807;-63
2021/12/02 07:39:30;;;;;;;0.70;0.70;;;;;;;5.46;100.00;94751.78;4856805;28;105387;-63
2021/12/02 07:42:42;;;;;;;0.57;0.57;;;;;;;5.48;100.00;94749.66;4858062;28;101928;-63
2021/12/02 07:45:10;;;;;;;1.77;0.70;;;;;;;5.44;100.00;94749.41;4837752;29;105898;-63
2021/12/02 07:47:40;;;;;;;1.23;0.80;;;;;;;5.43;100.00;94749.66;4846245;28;102000;-60
2021/12/02 07:50:10;;;;;;;0.90;0.73;;;;;;;5.41;100.00;94754.38;4857027;28;104946;-60
2021/12/02 07:52:54;;;;;;;1.27;0.70;;;;;;;5.44;100.00;94748.59;4854790;28;104960;-60
2021/12/02 07:58:49;;;;;;;1.20;0.80;;;;;;;5.44;100.00;94748.59;4853130;28;104799;-61
2021/12/02 08:01:25;;;;;;;0.87;0.77;;;;;;;5.46;100.00;94749.13;4837348;29;105385;-60
2021/12/02 08:03:52;;;;;;;0.50;0.50;;;;;;;5.43;100.00;94752.28;4841674;28;101808;-63
2021/12/02 08:06:19;;;;;;;0.97;0.73;;;;;;;5.42;100.00;94740.16;4840929;29;105798;-63
2021/12/02 08:08:47;;;;;;;1.03;0.77;;;;;;;5.44;100.00;94748.59;4865383;28;102027;-63
2021/12/02 08:11:15;;;;;;;1.53;0.63;;;;;;;5.42;100.00;94748.06;4849484;29;104889;-63
2021/12/02 08:13:42;;;;;;;0.80;0.80;;;;;;;5.46;100.00;94749.13;4842835;28;105351;-63
2021/12/02 08:16:09;;;;;;;0.70;0.70;;;;;;;5.46;100.00;94751.78;4856480;28;102078;-63
2021/12/02 08:18:37;;;;;;;0.70;0.70;;;;;;;5.45;100.00;94750.97;4852191;29;104846;-63
2021/12/02 08:21:04;;;;;;;0.80;0.70;;;;;;;5.44;100.00;94753.84;4836999;29;104018;-63
2021/12/02 08:23:32;;;;;;;1.33;0.80;;;;;;;5.43;100.00;94760.19;4838047;29;101891;-63
2021/12/02 08:26:17;;;;;;;0.63;0.63;;;;;;;5.45;100.00;94758.88;4870440;28;102643;-63
2021/12/02 08:28:44;;;;;;;0.80;0.70;;;;;;;5.49;100.00;94753.88;4859367;28;105886;-63
2021/12/02 08:31:40;;;;;;;3.20;1.00;;;;;;;5.51;100.00;94755.22;4849050;29;105239;-63
2021/12/02 08:34:09;;;;;;;1.33;0.93;;;;;;;5.54;100.00;94761.81;4842398;28;103770;-62
2021/12/02 08:36:43;;;;;;;1.00;1.00;;;;;;;5.57;100.00;94762.09;4853311;28;103263;-62
2021/12/02 08:39:16;;;;;;;0.83;0.73;;;;;;;5.61;100.00;94759.72;4848146;29;105206;-61
2021/12/02 08:41:48;;;;;;;1.07;0.70;;;;;;;5.64;100.00;94764.47;4851183;28;105096;-61
2021/12/02 08:44:15;;;;;;;2.60;1.00;;;;;;;5.64;100.00;94753.94;4855962;28;101815;-62
2021/12/02 08:46:42;;;;;;;1.50;0.80;;;;;;;5.68;100.00;94752.38;4841520;29;105225;-62
2021/12/02 08:49:09;;;;;;;2.03;1.37;;;;;;;5.60;100.00;94763.41;4858749;28;104187;-62
2021/12/02 08:51:53;;;;;;;1.70;1.57;;;;;;;5.60;100.00;94752.88;4863045;28;101763;-62
2021/12/02 08:54:25;;;;;;;2.17;1.10;;;;;;;5.64;100.00;94753.94;4859004;28;105066;-62
2021/12/02 08:56:55;;;;;;;1.50;1.30;;;;;;;5.82;100.00;94745.56;4850862;28;101850;-62
2021/12/02 08:59:24;;;;;;;2.03;1.10;;;;;;;5.94;100.00;94749.56;4851197;28;104545;-62
2021/12/02 09:01:55;;;;;;;1.50;1.33;;;;;;;6.01;100.00;94759.88;4851741;29;105365;-62
2021/12/02 09:04:22;;;;;;;2.73;1.37;;;;;;;6.00;100.00;94759.06;4840663;29;101876;-62
2021/12/02 09:06:49;;;;;;;3.83;1.30;;;;;;;5.95;100.00;94755.66;4840885;29;105561;-62
2021/12/02 09:09:16;;;;;;;2.10;1.27;;;;;;;5.84;100.00;94754.03;4855654;29;105030;-62
2021/12/02 09:11:49;;;;;;;2.20;1.20;;;;;;;5.84;100.00;94760.09;4858270;28;101875;-62
2021/12/02 09:14:17;;;;;;;1.30;1.20;;;;;;;5.79;100.00;94767.19;4875836;28;102754;-62
2021/12/02 09:16:45;;;;;;;1.20;1.10;;;;;;;5.84;100.00;94770.63;4855705;28;102321;-62
2021/12/02 09:19:14;;;;;;;0.87;0.87;;;;;;;5.78;100.00;94771.66;4876354;28;102314;-62
2021/12/02 09:21:52;;;;;;;1.80;1.27;;;;;;;5.80;100.00;94766.97;4844091;28;103973;-62
2021/12/02 09:24:19;;;;;;;1.57;0.73;;;;;;;5.76;100.00;94768.50;4870758;28;101879;-62
2021/12/02 09:26:47;;;;;;;1.70;1.10;;;;;;;5.77;100.00;94764.78;4874636;28;104792;-62
2021/12/02 09:29:14;;;;;;;1.20;1.10;;;;;;;5.88;100.00;94761.16;4858598;28;105341;-62
2021/12/02 09:32:04;;;;;;;1.47;0.70;;;;;;;6.05;100.00;94755.66;4873339;28;101887;-63
2021/12/02 09:34:32;;;;;;;1.87;1.03;;;;;;;6.34;100.00;94752.25;4860158;29;102648;-62
2021/12/02 09:36:59;;;;;;;2.27;1.10;;;;;;;6.46;100.00;94747.50;4872134;28;101876;-62
2021/12/02 09:39:31;;;;;;;2.30;0.90;;;;;;;6.52;100.00;94749.09;4844016;28;105210;-62
2021/12/02 09:42:10;;;;;;;1.10;1.00;;;;;;;6.29;100.00;94743.53;4858382;28;105727;-62
2021/12/02 09:44:38;;;;;;;1.00;0.93;;;;;;;6.28;100.00;94729.53;4858128;28;101840;-62
2021/12/02 09:47:08;;;;;;;2.23;0.80;;;;;;;6.36;100.00;94725.59;4858249;28;105253;-63
2021/12/02 09:49:36;;;;;;;3.30;1.00;;;;;;;6.44;100.00;94723.22;4841563;29;104272;-62
2021/12/02 09:52:07;;;;;;;1.40;0.90;;;;;;;6.32;100.00;94725.31;4839892;29;101977;-63
2021/12/02 09:54:43;;;;;;;0.63;0.63;;;;;;;6.37;100.00;94721.88;4855194;28;105187;-63
2021/12/02 09:57:13;;;;;;;1.00;0.90;;;;;;;6.50;100.00;94727.44;4842307;29;105477;-63
2021/12/02 09:59:47;;;;;;;1.03;0.70;;;;;;;6.47;100.00;94716.59;4856975;28;105355;-62
2021/12/02 10:03:04;;;;;;;0.73;0.73;;;;;;;6.59;100.00;94719.75;4852540;29;105312;-62
2021/12/02 10:05:38;;;;;;;0.67;0.60;;;;;;;6.51;100.00;94717.66;4851155;28;101835;-63
2021/12/02 10:08:08;;;;;;;0.77;0.77;;;;;;;6.67;100.00;94721.88;4851781;29;103727;-62
2021/12/02 10:10:39;;;;;;;1.40;0.77;;;;;;;6.69;100.00;94717.13;4843407;28;105328;-62
2021/12/02 10:13:18;;;;;;;0.63;0.63;;;;;;;6.72;100.00;94709.44;4864200;28;101895;-62
2021/12/02 10:15:54;;;;;;;1.27;0.73;;;;;;;6.79;100.00;94701.25;4848197;28;105340;-62
2021/12/02 10:18:26;;;;;;;1.63;0.90;;;;;;;6.92;100.00;94701.50;4857618;28;105345;-62
2021/12/02 10:20:56;;;;;;;1.27;0.90;;;;;;;6.76;100.00;94688.59;4856279;28;101909;-62
2021/12/02 10:23:26;;;;;;;1.10;0.60;;;;;;;6.85;100.00;94677.22;4861041;28;103113;-64
2021/12/02 10:26:11;;;;;;;0.83;0.70;;;;;;;6.98;100.00;94697.00;4845154;28;101879;-63
2021/12/02 10:28:42;;;;;;;1.13;0.70;;;;;;;7.15;100.00;94678.97;4858129;28;105798;-63
2021/12/02 10:31:23;;;;;;;4.63;0.77;;;;;;;7.22;100.00;94676.81;4840584;29;105403;-63
2021/12/02 10:33:54;;;;;;;0.80;0.80;;;;;;;7.30;100.00;94684.19;4839619;29;101893;-62
2021/12/02 10:36:36;;;;;;;2.40;1.10;;;;;;;7.29;100.00;94682.59;4857165;28;105110;-63
2021/12/02 10:39:10;;;;;;;0.80;0.80;;;;;;;7.46;100.00;94677.75;4874355;28;102706;-63
2021/12/02 10:45:02;;;;;;;0.93;0.93;;;;;;;7.42;100.00;94682.03;4842190;29;104168;-63
2021/12/02 10:47:30;;;;;;;2.63;0.90;;;;;;;7.69;100.00;94677.91;4852892;28;102245;-63
2021/12/02 10:49:59;;;;;;;1.27;0.60;;;;;;;7.55;100.00;94682.22;4851294;29;105548;-63
2021/12/02 10:52:36;;;;;;;1.67;0.83;;;;;;;7.45;100.00;94670.88;4849709;28;105323;-63
2021/12/02 10:58:32;;;;;;;1.43;1.20;;;;;;;7.65;100.00;94673.44;4838822;29;104808;-62
2021/12/02 11:01:06;;;;;;;2.03;0.80;;;;;;;7.46;100.00;94675.91;4852209;28;104359;-64
2021/12/02 11:03:34;;;;;;;1.07;0.70;;;;;;;7.77;100.00;94674.69;4857765;28;102030;-64
2021/12/02 11:06:01;;;;;;;0.80;0.70;;;;;;;7.92;100.00;94679.09;4843690;29;103736;-64
2021/12/02 11:08:34;;;;;;;1.07;0.77;;;;;;;7.95;100.00;94674.03;4841207;29;101919;-64
2021/12/02 11:11:36;;;;;;;1.60;0.80;;;;;;;7.75;100.00;94660.94;4852972;28;105170;-64
2021/12/02 11:14:13;;;;;;;0.80;0.70;;;;;;;7.95;100.00;94655.50;4839487;29;105198;-64
2021/12/02 11:16:39;;;;;;;0.60;0.57;;;;;;;8.00;100.00;94652.03;4855939;29;101675;-64
2021/12/02 11:19:20;;;;;;;0.60;0.60;;;;;;;7.86;100.00;94659.03;4850629;28;105156;-64
2021/12/02 11:21:47;;;;;;;1.03;0.70;;;;;;;7.65;100.00;94654.91;4855578;28;104275;-64
2021/12/02 11:24:43;;;;;;;0.73;0.70;;;;;;;7.94;100.00;94651.28;4850380;28;102425;-64
2021/12/02 11:27:13;;;;;;;2.13;1.00;;;;;;;7.90;100.00;94654.78;4836317;29;105050;-62
2021/12/02 11:30:04;;;;;;;1.53;1.07;;;;;;;7.95;100.00;94646.75;4841466;29;105206;-62
2021/12/02 11:32:49;;;;;;;0.77;0.60;;;;;;;7.87;100.00;94650.81;4843484;28;105541;-62
2021/12/02 11:35:28;;;;;;;1.30;0.70;;;;;;;7.65;100.00;94634.56;4855058;29;102721;-62
2021/12/02 11:38:02;;;;;;;1.83;0.80;;;;;;;7.62;100.00;94629.00;4847673;28;101858;-62
2021/12/02 11:43:54;;;;;;;1.17;0.60;;;;;;;7.52;100.00;94624.56;4839034;29;105169;-62
2021/12/02 11:46:22;;;;;;;1.63;0.90;;;;;;;7.45;100.00;94618.81;4838441;29;101914;-62
2021/12/02 11:48:49;;;;;;;1.00;0.70;;;;;;;7.44;100.00;94619.88;4846000;28;104908;-62
2021/12/02 11:51:25;;;;;;;1.40;0.90;;;;;;;7.47;100.00;94614.03;4856659;28;105128;-62
2021/12/02 11:53:52;;;;;;;2.17;1.13;;;;;;;7.40;100.00;94620.66;4856995;28;101856;-62
2021/12/02 11:56:22;;;;;;;2.90;1.50;;;;;;;7.33;100.00;94620.19;4856492;28;105479;-62
2021/12/02 11:58:50;;;;;;;3.90;1.33;;;;;;;7.38;100.00;94612.22;4841970;29;101996;-62
2021/12/02 12:01:29;;;;;;;2.53;1.43;;;;;;;7.34;100.00;94605.91;4838423;29;102910;-62
2021/12/02 12:04:04;;;;;;;1.33;0.80;;;;;;;7.34;100.00;94611.19;4855519;28;105018;-62
2021/12/02 12:06:33;;;;;;;1.43;0.70;;;;;;;7.32;100.00;94613.31;4873951;28;101740;-62